Crossings, Florida
Current Conditions -  °F | °C
As of 3:53 PM on Thursday 23 Oct 2014 (Local Time) from KTMB Reporting Station
Broken Clouds Broken Clouds  
Wind Chill: 82°   Ceiling: 7000
Heat Index: 86°   Visibility: 10mi
Dew Point: 71°   Wind: 17mph
Humidity: 69%   Direction: 50°NE
Pressure: 29.86"   Gusts: NA
Location:  25.6565°N, 80.4096°W
Report Text: KTMB 231953Z 05015KT 10SM FEW019 SCT036 BKN070 28/22 A2986 RMK AO2 SLP110 T02780217
Loading
Personal Weather Stations






























Interactive Weather Map
Tropical Storm Tracking
New forecast layout! Learn more

10-Day Weather Forecast

Advertisements
Track Severe Weather on mobile